Stations météo

réclame
Mon MeteoGroup
Puebla De D. Rodrigo, Espagne (8271): Température de l'air & dewpoint: 18.02.2018 01:00:00 - 24.02.2018 01:00:00 (CET)Puebla De D. Rodrigo, Espagne (8271): Vitesse du vent & gusts: 18.02.2018 01:00:00 - 24.02.2018 01:00:00 (CET)Puebla De D. Rodrigo, Espagne (8271): Direction du vent: 18.02.2018 01:00:00 - 24.02.2018 01:00:00 (CET)Puebla De D. Rodrigo, Espagne (8271): reduced air pressure: 18.02.2018 01:00:00 - 24.02.2018 01:00:00 (CET)Puebla De D. Rodrigo, Espagne (8271): Quantités de précipitations: 18.02.2018 01:00:00 - 24.02.2018 01:00:00 (CET)
Date & Time tt [°C] td [°C] ff [km/h] ff [knt] fx [km/h] fx [knt] dd ppp [hPa] rr [mm]
24.02.2018 01:00:00 - - - - - - - - -
24.02.2018 00:00:00 -2,7 -9,0 0 0 3 2 N 1003,7 0,0
23.02.2018 23:00:00 0,0 -9,0 0 0 5 3 N 1003,2 0,0
23.02.2018 22:00:00 0,7 -10,3 1 1 5 3 NE 1002,6 0,0
23.02.2018 21:00:00 3,1 -11,2 0 0 4 2 E 1001,5 0,0
23.02.2018 20:00:00 5,1 -12,2 0 0 7 4 N 1000,9 0,0
23.02.2018 19:00:00 7,6 -12,2 4 2 10 5 S 1000,2 -
23.02.2018 18:00:00 9,4 -11,7 8 5 13 7 S 999,4 0,0
23.02.2018 17:00:00 11,9 -10,3 6 3 18 10 ESE 998,9 0,0
23.02.2018 16:00:00 11,8 -9,9 8 4 19 10 SE 999,6 0,0
23.02.2018 15:00:00 11,5 -9,0 8 5 21 11 ESE 1000,2 0,0
23.02.2018 14:00:00 9,8 -9,4 8 4 26 14 E 1001,0 0,0
23.02.2018 13:00:00 7,9 -9,4 9 5 31 17 SE 1002,3 -
23.02.2018 12:00:00 7,3 -9,9 12 6 24 13 E 1003,1 0,0
23.02.2018 11:00:00 5,2 -6,7 5 3 11 6 ESE 1004,1 0,0
23.02.2018 10:00:00 1,2 -5,7 3 1 8 5 ESE 1005,3 0,1
23.02.2018 09:00:00 -1,2 -4,8 0 0 4 2 NE 1005,9 0,0
23.02.2018 08:00:00 -4,7 -6,7 0 0 4 2 NNW 1006,3 0,0
23.02.2018 07:00:00 -2,9 -6,7 0 0 5 3 N 1005,6 -
23.02.2018 06:00:00 -2,6 -6,0 3 2 6 3 NNW 1005,5 0,0
23.02.2018 05:00:00 -2,3 -5,4 2 1 6 4 NNE 1005,3 0,0
23.02.2018 04:00:00 -1,6 -4,8 1 0 4 2 NE 1005,6 0,0
23.02.2018 03:00:00 -1,5 -4,8 0 0 5 3 N 1005,7 0,0
23.02.2018 02:00:00 -0,7 -5,1 0 0 7 4 NNE 1005,7 0,0
23.02.2018 01:00:00 0,7 -5,4 0 0 10 5 N 1005,3 -
23.02.2018 00:00:00 1,7 -6,0 1 0 9 5 ENE 1005,0 0,0
22.02.2018 23:00:00 3,3 -7,1 3 1 12 6 WNW 1004,6 0,0
22.02.2018 22:00:00 3,5 -7,5 0 0 13 7 W 1004,4 0,0
22.02.2018 21:00:00 5,4 -6,7 6 3 10 5 WSW 1003,7 0,0
22.02.2018 20:00:00 5,9 -7,8 5 3 14 8 WSW 1003,1 0,0
22.02.2018 19:00:00 8,8 -7,8 8 4 18 10 WSW 1002,3 -
22.02.2018 18:00:00 11,1 -9,4 8 4 23 12 WSW 1001,5 0,0
22.02.2018 17:00:00 13,4 -8,6 7 4 19 11 WSW 1001,1 0,0
22.02.2018 16:00:00 13,5 -7,1 8 4 18 10 W 1001,5 0,0
22.02.2018 15:00:00 12,3 -8,2 2 1 19 10 W 1002,2 0,0
22.02.2018 14:00:00 12,0 -7,1 2 1 14 8 SSW 1003,1 0,0
22.02.2018 13:00:00 10,7 -6,7 3 1 11 6 N 1004,0 -
22.02.2018 12:00:00 7,9 -7,1 3 2 13 7 ENE 1005,3 0,0
22.02.2018 11:00:00 6,6 -6,7 6 3 13 7 ESE 1005,8 0,0
22.02.2018 10:00:00 3,4 -7,1 4 2 10 5 SE 1006,7 0,0
22.02.2018 09:00:00 1,8 -8,2 5 3 9 5 SSW 1007,0 0,0
22.02.2018 08:00:00 -1,3 -10,8 3 1 8 4 E 1007,6 0,0
22.02.2018 07:00:00 -0,5 -11,2 3 1 15 8 WNW 1007,4 -
22.02.2018 06:00:00 0,4 -11,2 5 3 13 7 W 1007,6 0,0
22.02.2018 05:00:00 1,2 -11,2 5 3 21 12 SSW 1007,0 0,0
22.02.2018 04:00:00 1,6 -11,7 3 1 23 12 ENE 1007,1 0,0
22.02.2018 03:00:00 2,7 -10,8 14 8 29 16 NNE 1007,1 0,0
22.02.2018 02:00:00 2,7 -10,8 10 6 23 12 NE 1007,6 0,0
22.02.2018 01:00:00 3,5 -9,0 8 4 17 9 E 1007,3 -
22.02.2018 00:00:00 3,7 -8,6 2 1 9 5 SE 1007,4 0,0
21.02.2018 23:00:00 4,8 -7,8 5 3 25 14 SE 1007,1 0,0
21.02.2018 22:00:00 6,3 -7,1 16 9 24 13 NE 1005,9 0,0
21.02.2018 21:00:00 7,0 -7,1 4 2 23 12 N 1005,6 0,0
21.02.2018 20:00:00 8,5 -6,7 13 7 44 24 N 1004,7 0,0
21.02.2018 19:00:00 9,6 -6,4 8 5 31 17 N 1003,8 -
21.02.2018 18:00:00 10,7 -6,0 10 5 31 17 NNE 1003,0 0,0
21.02.2018 17:00:00 11,6 -6,7 21 11 42 23 NE 1002,6 0,0
21.02.2018 16:00:00 12,6 -5,4 11 6 37 20 N 1002,8 0,0
21.02.2018 15:00:00 12,2 -5,7 14 7 45 24 NNE 1003,2 0,0
21.02.2018 14:00:00 12,7 -4,8 14 7 36 19 NNE 1003,9 0,0
21.02.2018 13:00:00 12,5 -4,2 18 10 38 21 NNE 1004,8 -
21.02.2018 12:00:00 11,2 -3,3 16 9 34 19 N 1005,8 0,0
21.02.2018 11:00:00 10,5 -2,2 10 6 29 16 N 1006,6 0,0
21.02.2018 10:00:00 7,1 0,2 1 0 14 8 S 1007,4 0,0
21.02.2018 09:00:00 2,3 0,0 1 1 13 7 WSW 1009,0 0,0
21.02.2018 08:00:00 -1,1 -1,7 1 0 13 7 N 1010,2 0,0
21.02.2018 07:00:00 -0,2 -1,0 3 2 10 6 W 1009,6 -
21.02.2018 06:00:00 -0,1 -1,4 1 0 6 3 W 1009,9 0,0
21.02.2018 05:00:00 0,6 -1,4 0 0 8 4 N 1009,9 0,0
21.02.2018 04:00:00 2,2 -1,0 1 1 8 5 WSW 1010,0 0,0
21.02.2018 03:00:00 3,7 -1,7 2 1 8 4 S 1010,7 0,0
21.02.2018 02:00:00 5,2 -2,2 3 2 9 5 NNW 1011,4 0,0
21.02.2018 01:00:00 7,2 -2,7 2 1 9 5 E 1011,1 -
21.02.2018 00:00:00 8,3 -2,2 3 2 10 5 NE 1011,3 0,0
20.02.2018 23:00:00 9,1 -2,2 5 3 19 10 NNE 1011,2 0,0
20.02.2018 22:00:00 9,8 -1,7 8 5 16 9 NNE 1011,6 0,0
20.02.2018 21:00:00 10,2 -2,0 2 1 31 17 ENE 1010,9 0,0
20.02.2018 20:00:00 11,9 -1,7 11 6 22 12 N 1010,7 0,0
20.02.2018 19:00:00 12,8 -2,0 9 5 29 16 N 1010,2 -
20.02.2018 18:00:00 14,2 -2,0 15 8 31 17 NNE 1009,3 0,0
20.02.2018 17:00:00 16,3 -1,4 11 6 24 13 N 1009,1 0,0
20.02.2018 16:00:00 18,4 0,9 3 2 17 9 NNW 1008,7 0,0
20.02.2018 15:00:00 17,8 0,4 6 3 14 7 WNW 1009,9 0,0
20.02.2018 14:00:00 15,9 0,0 2 1 17 9 NW 1011,3 0,0
20.02.2018 13:00:00 15,5 0,9 6 3 13 7 E 1012,2 -
20.02.2018 12:00:00 14,4 1,3 5 3 11 6 N 1012,9 0,0
20.02.2018 11:00:00 8,2 1,3 3 2 8 4 ENE 1015,1 0,0
20.02.2018 10:00:00 4,0 0,0 3 2 7 4 ENE 1015,9 0,0
20.02.2018 09:00:00 3,2 0,9 0 0 5 3 N 1016,1 0,0
20.02.2018 08:00:00 -0,1 -0,7 0 0 0 0 N 1016,4 0,0
20.02.2018 07:00:00 1,3 0,6 0 0 0 0 N 1016,1 -
20.02.2018 06:00:00 0,8 0,0 0 0 0 0 N 1016,0 0,0
20.02.2018 05:00:00 1,5 0,4 0 0 4 2 N 1015,6 0,0
20.02.2018 04:00:00 2,4 0,9 0 0 0 0 N 1015,6 0,0
20.02.2018 03:00:00 3,9 1,7 0 0 11 6 W 1015,3 0,0
20.02.2018 02:00:00 4,4 0,6 0 0 10 6 S 1015,3 0,0
20.02.2018 01:00:00 5,7 -0,3 0 0 10 5 N 1014,9 -
20.02.2018 00:00:00 8,8 0,6 5 3 13 7 NW 1014,3 0,0
19.02.2018 23:00:00 7,7 -0,5 5 3 12 6 NW 1014,6 0,0
19.02.2018 22:00:00 8,8 -1,0 7 4 13 7 W 1014,4 0,0
19.02.2018 21:00:00 9,5 -1,4 0 0 5 3 WSW 1013,7 0,0
19.02.2018 20:00:00 10,8 -1,2 1 0 10 5 N 1013,1 0,0
19.02.2018 19:00:00 11,6 -2,0 8 4 16 9 NE 1012,7 -
19.02.2018 18:00:00 13,5 -1,0 9 5 18 10 NE 1011,9 0,0
19.02.2018 17:00:00 14,4 -1,2 9 5 22 12 NE 1011,5 0,0
19.02.2018 16:00:00 15,7 -0,5 7 4 21 12 N 1011,5 0,0
19.02.2018 15:00:00 15,9 0,4 8 4 27 15 NNE 1011,6 0,0
19.02.2018 14:00:00 14,0 0,0 9 5 24 13 NNE 1012,5 0,0
19.02.2018 13:00:00 14,5 0,6 9 5 25 13 NNE 1013,4 -
19.02.2018 12:00:00 12,6 0,6 3 2 10 5 NE 1014,3 0,0
19.02.2018 11:00:00 8,8 0,6 2 1 9 5 E 1015,2 0,0
19.02.2018 10:00:00 3,6 -2,2 2 1 6 3 E 1016,5 0,0
19.02.2018 09:00:00 0,7 -1,0 0 0 5 3 N 1017,4 0,0
19.02.2018 08:00:00 -0,3 -1,7 0 0 0 0 N 1017,2 0,0
19.02.2018 07:00:00 -0,3 -2,0 0 0 4 2 S 1016,9 -
19.02.2018 06:00:00 0,4 -1,7 0 0 6 4 N 1016,7 0,0
19.02.2018 05:00:00 0,4 -2,0 0 0 3 2 N 1016,6 0,0
19.02.2018 04:00:00 1,0 -1,7 2 1 5 3 SW 1016,6 0,0
19.02.2018 03:00:00 1,5 -2,7 0 0 8 4 N 1017,0 0,0
19.02.2018 02:00:00 2,0 -2,7 0 0 0 0 N 1017,1 0,0
19.02.2018 01:00:00 3,2 -3,3 0 0 8 4 N 1017,2 -
19.02.2018 00:00:00 3,7 -3,9 0 0 8 4 N 1017,4 0,0
18.02.2018 23:00:00 4,8 -5,1 1 1 8 4 W 1017,0 0,0
18.02.2018 22:00:00 6,3 -6,0 0 0 5 3 N 1016,8 0,0
18.02.2018 21:00:00 8,1 -5,7 5 3 9 5 W 1016,6 0,0
18.02.2018 20:00:00 9,0 -6,4 0 0 15 8 SSW 1016,3 0,0
18.02.2018 19:00:00 10,1 -6,4 9 5 23 13 NE 1015,7 -
18.02.2018 18:00:00 11,7 -6,7 9 5 23 12 NNE 1015,0 0,0
18.02.2018 17:00:00 12,3 -9,4 11 6 23 13 NNE 1014,8 0,0
18.02.2018 16:00:00 14,6 -5,7 14 7 26 14 NE 1014,4 0,0
18.02.2018 15:00:00 14,9 -3,6 8 4 19 10 NE 1014,9 0,0
18.02.2018 14:00:00 14,9 -3,6 7 4 20 11 N 1015,8 0,0
18.02.2018 13:00:00 14,0 -3,0 10 6 19 11 NNE 1017,0 -
18.02.2018 12:00:00 12,4 -3,9 9 5 21 11 ENE 1017,8 0,0
18.02.2018 11:00:00 11,2 -3,9 12 7 23 12 ENE 1018,3 0,0
18.02.2018 10:00:00 9,9 -3,0 8 4 13 7 E 1018,8 0,0
18.02.2018 09:00:00 7,1 -3,9 5 3 11 6 E 1019,2 0,0
18.02.2018 08:00:00 6,0 -4,8 4 2 12 7 NE 1018,6 0,0
18.02.2018 07:00:00 7,5 -4,2 4 2 9 5 SSE 1018,3 -
18.02.2018 06:00:00 8,8 -4,5 6 3 22 12 E 1017,9 0,0
18.02.2018 05:00:00 8,9 -1,4 6 4 18 10 NE 1017,9 0,0
18.02.2018 04:00:00 8,7 0,0 6 3 16 9 E 1018,4 0,0
18.02.2018 03:00:00 9,5 1,7 5 3 21 11 E 1018,5 0,0
18.02.2018 02:00:00 9,6 2,7 5 3 9 5 ESE 1018,3 0,0
18.02.2018 01:00:00 10,4 2,1 1 1 6 3 E 1018,2 -

tt = Température de l'air
td = dewpoint
ff = Vitesse du vent
fx = gusts
dd = Direction du vent
ppp = reduced air pressure
rr = Quantités de précipitations

stations d'obs. à proximité